createdAt,value
2023-10-12T00:02:01.053Z,101211.09
2023-10-12T00:04:44.677Z,101213.81
2023-10-12T00:07:26.522Z,101216.69
2023-10-12T00:10:04.042Z,101214.88
2023-10-12T00:12:30.606Z,101221.00
2023-10-12T00:14:57.259Z,101203.63
2023-10-12T00:17:28.095Z,101223.00
2023-10-12T00:19:54.587Z,101225.72
2023-10-12T00:22:22.743Z,101237.13
2023-10-12T00:24:51.030Z,101239.75
2023-10-12T00:27:18.390Z,101241.41
2023-10-12T00:29:49.626Z,101238.78
2023-10-12T00:32:16.084Z,101231.84
2023-10-12T00:34:55.312Z,101245.00
2023-10-12T00:37:21.765Z,101253.75
2023-10-12T00:39:54.037Z,101245.84
2023-10-12T00:42:26.489Z,101241.63
2023-10-12T00:44:55.894Z,101243.44
2023-10-12T00:47:41.982Z,101240.81
2023-10-12T00:50:12.940Z,101253.13
2023-10-12T00:52:55.002Z,101250.38
2023-10-12T00:55:36.320Z,101241.63
2023-10-12T00:58:06.797Z,101252.91
2023-10-12T01:00:47.991Z,101252.03
2023-10-12T01:03:40.781Z,101258.16
2023-10-12T01:06:10.234Z,101262.69
2023-10-12T01:08:44.419Z,101264.47
2023-10-12T01:11:19.235Z,101264.47
2023-10-12T01:13:56.088Z,101265.41
2023-10-12T01:16:24.504Z,101267.13
2023-10-12T01:18:56.831Z,101263.66
2023-10-12T01:21:23.868Z,101272.69
2023-10-12T01:23:53.568Z,101277.34
2023-10-12T01:26:21.074Z,101277.69
2023-10-12T01:28:50.571Z,101284.00
2023-10-12T01:31:28.491Z,101270.25
2023-10-12T01:33:59.277Z,101274.53
2023-10-12T01:36:29.292Z,101270.25
2023-10-12T01:39:12.519Z,101277.16
2023-10-12T01:41:43.002Z,101275.50
2023-10-12T01:44:13.347Z,101269.41
2023-10-12T01:46:42.906Z,101262.56
2023-10-12T01:49:12.513Z,101252.19
2023-10-12T01:51:44.743Z,101254.19
2023-10-12T01:54:13.504Z,101256.91
2023-10-12T01:56:40.379Z,101249.16
2023-10-12T01:59:08.565Z,101245.69
2023-10-12T02:01:35.872Z,101265.16
2023-10-12T02:04:05.877Z,101254.53
2023-10-12T02:06:32.535Z,101275.91
2023-10-12T02:09:11.295Z,101272.88
2023-10-12T02:11:46.938Z,101280.78
2023-10-12T02:14:14.727Z,101278.97
2023-10-12T02:16:54.398Z,101281.81
2023-10-12T02:19:32.622Z,101281.13
2023-10-12T02:22:01.850Z,101269.75
2023-10-12T02:24:28.661Z,101263.56
2023-10-12T02:26:55.979Z,101255.88
2023-10-12T02:29:22.513Z,101265.56
2023-10-12T02:31:51.356Z,101256.09
2023-10-12T02:34:31.028Z,101254.31
2023-10-12T02:37:09.673Z,101261.69
2023-10-12T02:39:39.032Z,101273.25
2023-10-12T02:42:17.839Z,101274.22
2023-10-12T02:44:48.916Z,101284.50
2023-10-12T02:47:24.612Z,101281.75
2023-10-12T02:50:16.211Z,101289.97
2023-10-12T02:52:45.876Z,101292.47
2023-10-12T02:55:24.106Z,101302.28
2023-10-12T02:57:55.818Z,101287.44
2023-10-12T03:00:33.059Z,101293.44
2023-10-12T03:03:09.237Z,101295.09
2023-10-12T03:05:49.491Z,101277.88
2023-10-12T03:08:18.563Z,101268.75
2023-10-12T03:11:09.171Z,101276.22
2023-10-12T03:13:37.904Z,101282.84
2023-10-12T03:16:13.386Z,101285.75
2023-10-12T03:18:40.658Z,101292.75
2023-10-12T03:21:12.828Z,101293.75
2023-10-12T03:23:40.830Z,101285.25
2023-10-12T03:26:19.938Z,101282.63
2023-10-12T03:28:47.592Z,101283.53
2023-10-12T03:31:27.380Z,101281.03
2023-10-12T03:33:57.660Z,101287.13
2023-10-12T03:36:38.037Z,101290.69
2023-10-12T03:39:13.741Z,101296.16
2023-10-12T03:42:01.874Z,101297.22
2023-10-12T03:44:46.522Z,101295.41
2023-10-12T03:47:22.038Z,101277.34
2023-10-12T03:49:55.821Z,101272.94
2023-10-12T03:52:40.065Z,101257.31
2023-10-12T03:55:09.690Z,101252.06
2023-10-12T03:57:36.454Z,101253.81
2023-10-12T04:00:07.300Z,101262.56
2023-10-12T04:02:43.332Z,101270.72
2023-10-12T04:05:35.750Z,101283.13
2023-10-12T04:08:06.775Z,101286.81
2023-10-12T04:10:49.276Z,101291.94
2023-10-12T04:13:29.057Z,101289.09
2023-10-12T04:16:08.713Z,101291.84
2023-10-12T04:18:42.538Z,101286.59
2023-10-12T04:21:16.528Z,101286.59
2023-10-12T04:23:45.858Z,101304.16
2023-10-12T04:26:15.170Z,101306.03
2023-10-12T04:28:56.541Z,101298.16
2023-10-12T04:31:32.942Z,101315.56
2023-10-12T04:34:09.856Z,101318.50
2023-10-12T04:36:43.790Z,101322.19
2023-10-12T04:39:28.681Z,101320.38
2023-10-12T04:42:02.679Z,101322.19
2023-10-12T04:44:32.078Z,101310.09
2023-10-12T04:47:10.981Z,101332.25
2023-10-12T04:49:39.295Z,101329.31
2023-10-12T04:52:14.751Z,101325.94
2023-10-12T04:54:57.821Z,101331.94
2023-10-12T04:57:34.811Z,101329.09
2023-10-12T05:00:25.181Z,101340.84
2023-10-12T05:02:52.014Z,101342.81
2023-10-12T05:05:24.964Z,101349.88
2023-10-12T05:07:57.649Z,101354.34
2023-10-12T05:10:33.261Z,101355.31
2023-10-12T05:13:06.963Z,101358.13
2023-10-12T05:15:41.928Z,101365.38
2023-10-12T05:18:12.464Z,101361.25
2023-10-12T05:20:42.479Z,101370.16
2023-10-12T05:23:10.008Z,101373.81
2023-10-12T05:25:49.466Z,101383.88
2023-10-12T05:28:19.605Z,101389.03
2023-10-12T05:31:05.083Z,101385.66
2023-10-12T05:33:31.636Z,101386.69
2023-10-12T05:36:00.398Z,101386.88
2023-10-12T05:38:37.082Z,101390.44
2023-10-12T05:41:11.784Z,101388.31
2023-10-12T05:43:41.554Z,101377.91
2023-10-12T05:46:15.186Z,101383.28
2023-10-12T05:48:46.889Z,101391.13
2023-10-12T05:51:15.663Z,101391.97
2023-10-12T05:53:42.377Z,101385.97
2023-10-12T05:56:08.915Z,101399.84
2023-10-12T05:58:35.711Z,101408.84
2023-10-12T06:01:09.506Z,101413.91
2023-10-12T06:03:41.046Z,101418.69
2023-10-12T06:06:10.832Z,101425.91
2023-10-12T06:08:38.957Z,101426.81
2023-10-12T06:11:08.773Z,101421.69
2023-10-12T06:13:45.505Z,101429.38
2023-10-12T06:16:22.709Z,101423.38
2023-10-12T06:18:50.787Z,101416.53
2023-10-12T06:21:20.614Z,101430.72
2023-10-12T06:23:51.642Z,101424.09
2023-10-12T06:26:30.256Z,101424.19
2023-10-12T06:28:58.366Z,101428.69
2023-10-12T06:31:27.202Z,101432.88
2023-10-12T06:33:56.452Z,101432.81
2023-10-12T06:36:44.711Z,101433.66
2023-10-12T06:39:31.508Z,101433.66
2023-10-12T06:41:57.926Z,101438.91
2023-10-12T06:44:27.416Z,101447.59
2023-10-12T06:47:23.314Z,101445.25
2023-10-12T06:49:52.771Z,101459.28
2023-10-12T06:52:20.429Z,101453.13
2023-10-12T06:54:56.075Z,101460.06
2023-10-12T06:57:28.307Z,101457.44
2023-10-12T07:00:00.703Z,101469.78
2023-10-12T07:02:33.330Z,101466.25
2023-10-12T07:05:05.250Z,101478.41
2023-10-12T07:07:42.868Z,101485.25
2023-10-12T07:10:10.818Z,101484.59
2023-10-12T07:12:47.633Z,101481.97
2023-10-12T07:15:21.474Z,101481.03
2023-10-12T07:17:50.900Z,101487.22
2023-10-12T07:20:34.218Z,101488.06
2023-10-12T07:23:13.136Z,101500.13
2023-10-12T07:25:39.600Z,101490.56
2023-10-12T07:28:06.826Z,101494.25
2023-10-12T07:30:37.627Z,101510.81
2023-10-12T07:33:08.848Z,101507.25
2023-10-12T07:35:37.293Z,101515.88
2023-10-12T07:38:26.632Z,101514.09
2023-10-12T07:40:56.003Z,101517.53
2023-10-12T07:43:24.668Z,101521.00
2023-10-12T07:45:52.686Z,101523.63
2023-10-12T07:48:40.712Z,101513.97
2023-10-12T07:51:17.536Z,101516.69
2023-10-12T07:53:51.110Z,101516.69
2023-10-12T07:56:18.421Z,101513.25
2023-10-12T07:58:48.320Z,101504.63
2023-10-12T08:01:26.868Z,101510.03
2023-10-12T08:03:54.444Z,101514.53
2023-10-12T08:06:53.347Z,101502.34
2023-10-12T08:09:34.836Z,101503.19
2023-10-12T08:12:21.344Z,101504.16
2023-10-12T08:14:47.849Z,101517.13
2023-10-12T08:17:27.360Z,101517.25
2023-10-12T08:20:16.795Z,101514.03
2023-10-12T08:22:43.352Z,101507.97
2023-10-12T08:25:09.900Z,101505.34
2023-10-12T08:28:07.047Z,101509.66
2023-10-12T08:30:52.584Z,101507.97
2023-10-12T08:33:39.082Z,101517.59
2023-10-12T08:36:17.390Z,101521.25
2023-10-12T08:39:09.553Z,101522.28
2023-10-12T08:41:54.991Z,101516.94
2023-10-12T08:44:22.004Z,101515.00
2023-10-12T08:46:57.720Z,101510.59
2023-10-12T08:49:44.168Z,101513.03
2023-10-12T08:52:21.908Z,101513.78
2023-10-12T08:54:54.324Z,101512.19
2023-10-12T08:57:44.486Z,101514.72
2023-10-12T09:00:25.552Z,101520.72
2023-10-12T09:03:07.584Z,101531.19
2023-10-12T09:05:35.767Z,101525.00
2023-10-12T09:08:14.824Z,101525.00
2023-10-12T09:10:52.682Z,101528.38
2023-10-12T09:13:20.527Z,101533.44
2023-10-12T09:15:49.588Z,101534.41
2023-10-12T09:18:20.168Z,101538.88
2023-10-12T09:21:02.467Z,101527.56
2023-10-12T09:23:30.439Z,101528.31
2023-10-12T09:26:19.471Z,101529.16
2023-10-12T09:28:47.404Z,101528.31
2023-10-12T09:31:15.866Z,101527.44
2023-10-12T09:33:46.621Z,101529.22
2023-10-12T09:36:13.162Z,101532.63
2023-10-12T09:38:39.761Z,101522.13
2023-10-12T09:41:14.072Z,101522.13
2023-10-12T09:43:43.131Z,101524.09
2023-10-12T09:46:11.141Z,101518.84
2023-10-12T09:48:40.444Z,101514.34
2023-10-12T09:51:16.565Z,101515.22
2023-10-12T09:53:54.668Z,101520.34
2023-10-12T09:56:29.419Z,101516.78
2023-10-12T09:59:14.671Z,101514.16
2023-10-12T10:01:41.302Z,101502.94
2023-10-12T10:04:26.451Z,101502.75
2023-10-12T10:07:04.987Z,101515.75
2023-10-12T10:09:31.515Z,101505.09
2023-10-12T10:11:59.336Z,101502.47
2023-10-12T10:14:35.254Z,101497.13
2023-10-12T10:17:02.490Z,101494.50
2023-10-12T10:19:32.304Z,101484.81
2023-10-12T10:22:18.324Z,101492.47
2023-10-12T10:24:47.716Z,101495.88
2023-10-12T10:27:15.678Z,101493.31
2023-10-12T10:29:57.101Z,101497.72
2023-10-12T10:32:31.260Z,101486.56
2023-10-12T10:35:05.822Z,101483.94
2023-10-12T10:38:02.498Z,101477.00
2023-10-12T10:40:49.029Z,101483.16
2023-10-12T10:43:16.840Z,101474.31
2023-10-12T10:45:57.590Z,101472.47
2023-10-12T10:48:51.657Z,101462.88
2023-10-12T10:51:26.020Z,101470.75
2023-10-12T10:53:58.344Z,101462.03
2023-10-12T10:56:38.638Z,101457.63
2023-10-12T10:59:07.487Z,101452.97
2023-10-12T11:01:34.547Z,101453.50
2023-10-12T11:04:03.121Z,101451.66
2023-10-12T11:06:29.763Z,101460.28
2023-10-12T11:09:08.869Z,101458.38
2023-10-12T11:11:52.481Z,101449.78
2023-10-12T11:14:19.750Z,101437.69
2023-10-12T11:16:49.734Z,101441.16
2023-10-12T11:19:21.077Z,101441.16
2023-10-12T11:21:52.929Z,101438.34
2023-10-12T11:24:25.090Z,101446.09
2023-10-12T11:26:53.611Z,101440.97
2023-10-12T11:29:20.401Z,101432.34
2023-10-12T11:32:11.389Z,101425.31
2023-10-12T11:34:46.122Z,101430.56
2023-10-12T11:37:15.124Z,101426.19
2023-10-12T11:39:43.490Z,101429.00
2023-10-12T11:42:13.874Z,101429.00
2023-10-12T11:44:45.050Z,101427.41
2023-10-12T11:47:13.131Z,101427.41
2023-10-12T11:49:50.728Z,101426.38
2023-10-12T11:52:31.673Z,101429.91
2023-10-12T11:55:07.571Z,101431.69
2023-10-12T11:57:37.036Z,101431.69
2023-10-12T12:00:30.128Z,101428.22
2023-10-12T12:03:00.906Z,101402.13
2023-10-12T12:05:34.091Z,101416.97
2023-10-12T12:08:07.265Z,101398.75
2023-10-12T12:10:46.515Z,101390.97
2023-10-12T12:13:16.598Z,101384.97
2023-10-12T12:15:44.722Z,101392.72
2023-10-12T12:18:21.034Z,101407.63
2023-10-12T12:20:49.352Z,101411.97
2023-10-12T12:23:16.202Z,101417.19
2023-10-12T12:25:43.364Z,101417.94
2023-10-12T12:28:22.740Z,101403.88
2023-10-12T12:31:00.014Z,101396.88
2023-10-12T12:33:30.362Z,101397.72
2023-10-12T12:36:08.449Z,101390.56
2023-10-12T12:38:37.750Z,101391.44
2023-10-12T12:41:06.963Z,101394.91
2023-10-12T12:43:37.742Z,101387.94
2023-10-12T12:46:06.147Z,101400.22
2023-10-12T12:48:34.543Z,101394.16
2023-10-12T12:51:01.573Z,101380.19
2023-10-12T12:53:29.833Z,101392.34
2023-10-12T12:55:58.143Z,101387.03
2023-10-12T12:58:25.299Z,101394.91
2023-10-12T13:00:53.849Z,101379.16
2023-10-12T13:03:21.995Z,101391.31
2023-10-12T13:05:48.600Z,101381.69
2023-10-12T13:08:18.238Z,101392.09
2023-10-12T13:10:45.532Z,101402.56
2023-10-12T13:13:13.437Z,101411.28
2023-10-12T13:15:43.712Z,101419.97
2023-10-12T13:18:15.751Z,101422.59
2023-10-12T13:20:50.025Z,101420.81
2023-10-12T13:23:22.961Z,101399.84
2023-10-12T13:25:49.722Z,101380.66
2023-10-12T13:28:17.993Z,101370.88
2023-10-12T13:30:45.048Z,101383.16
2023-10-12T13:33:14.828Z,101381.38
2023-10-12T13:35:41.713Z,101374.38
2023-10-12T13:38:13.063Z,101367.34
2023-10-12T13:40:48.107Z,101356.00
2023-10-12T13:43:23.367Z,101352.53
2023-10-12T13:45:51.162Z,101354.22
2023-10-12T13:48:23.382Z,101346.25
2023-10-12T13:51:09.536Z,101330.44
2023-10-12T13:53:39.562Z,101320.78
2023-10-12T13:56:10.925Z,101297.81
2023-10-12T13:58:38.640Z,101255.72
2023-10-12T14:01:06.615Z,101247.66
2023-10-12T14:03:36.519Z,101257.88
2023-10-12T14:06:07.860Z,101260.19
2023-10-12T14:08:36.591Z,101258.00
2023-10-12T14:11:05.110Z,101242.69
2023-10-12T14:13:32.739Z,101250.13
2023-10-12T14:16:00.230Z,101276.69
2023-10-12T14:18:32.093Z,101292.88
2023-10-12T14:20:58.979Z,101289.75
2023-10-12T14:23:30.727Z,101297.94
2023-10-12T14:25:58.575Z,101304.88
2023-10-12T14:28:32.666Z,101302.66
2023-10-12T14:30:59.443Z,101316.44
2023-10-12T14:33:26.734Z,101310.34
2023-10-12T14:35:53.307Z,101299.84
2023-10-12T14:38:19.972Z,101310.34
2023-10-12T14:40:46.740Z,101309.50
2023-10-12T14:43:16.952Z,101308.66
2023-10-12T14:45:50.874Z,101305.28
2023-10-12T14:48:17.532Z,101309.72
2023-10-12T14:50:50.180Z,101318.56
2023-10-12T14:53:17.983Z,101319.47
2023-10-12T14:55:45.028Z,101324.00
2023-10-12T14:58:15.059Z,101324.94
2023-10-12T15:00:45.243Z,101323.25
2023-10-12T15:03:25.026Z,101326.00
2023-10-12T15:06:01.244Z,101329.56
2023-10-12T15:08:27.803Z,101319.88
2023-10-12T15:10:58.214Z,101319.03
2023-10-12T15:13:26.866Z,101326.09
2023-10-12T15:15:54.699Z,101317.25
2023-10-12T15:18:26.032Z,101319.03
2023-10-12T15:20:56.550Z,101306.75
2023-10-12T15:23:29.643Z,101312.75
2023-10-12T15:26:07.287Z,101304.03
2023-10-12T15:28:37.215Z,101296.16
2023-10-12T15:31:07.709Z,101304.03
2023-10-12T15:33:35.588Z,101302.38
2023-10-12T15:36:02.378Z,101305.00
2023-10-12T15:38:34.910Z,101303.19
2023-10-12T15:41:02.151Z,101301.41
2023-10-12T15:43:29.971Z,101299.63
2023-10-12T15:45:57.024Z,101299.63
2023-10-12T15:48:27.907Z,101300.47
2023-10-12T15:50:55.626Z,101298.66
2023-10-12T15:53:25.696Z,101301.22
2023-10-12T15:55:52.831Z,101300.25
2023-10-12T15:58:20.085Z,101298.59
2023-10-12T16:00:46.697Z,101301.09
2023-10-12T16:03:15.539Z,101300.25
2023-10-12T16:05:43.774Z,101301.09
2023-10-12T16:08:15.813Z,101298.47
2023-10-12T16:10:47.693Z,101291.41
2023-10-12T16:13:14.269Z,101301.09
2023-10-12T16:15:40.772Z,101297.63
2023-10-12T16:18:09.625Z,101293.22
2023-10-12T16:20:36.515Z,101300.16
2023-10-12T16:23:03.657Z,101300.25
2023-10-12T16:25:31.921Z,101299.28
2023-10-12T16:27:59.387Z,101291.41
2023-10-12T16:30:28.348Z,101297.53
2023-10-12T16:32:55.854Z,101296.59
2023-10-12T16:35:24.621Z,101304.47
2023-10-12T16:37:57.161Z,101307.94
2023-10-12T16:40:26.634Z,101296.47
2023-10-12T16:42:55.343Z,101293.84
2023-10-12T16:45:23.909Z,101288.59
2023-10-12T16:47:51.981Z,101290.38
2023-10-12T16:50:19.622Z,101291.13
2023-10-12T16:52:50.244Z,101291.97
2023-10-12T16:55:18.981Z,101291.13
2023-10-12T16:57:46.693Z,101293.75
2023-10-12T17:00:17.713Z,101298.03
2023-10-12T17:02:45.694Z,101298.03
2023-10-12T17:05:23.775Z,101294.47
2023-10-12T17:07:50.200Z,101285.75
2023-10-12T17:10:35.621Z,101291.00
2023-10-12T17:13:02.152Z,101297.09
2023-10-12T17:15:28.854Z,101296.19
2023-10-12T17:17:55.720Z,101296.19
2023-10-12T17:20:24.590Z,101296.91
2023-10-12T17:22:52.417Z,101298.72
2023-10-12T17:25:19.175Z,101289.91
2023-10-12T17:27:46.442Z,101289.91
2023-10-12T17:30:13.263Z,101285.47
2023-10-12T17:32:42.162Z,101296.00
2023-10-12T17:35:13.686Z,101288.00
2023-10-12T17:37:40.765Z,101285.34
2023-10-12T17:40:09.560Z,101293.25
2023-10-12T17:42:36.233Z,101288.81
2023-10-12T17:45:10.211Z,101288.81
2023-10-12T17:47:40.306Z,101286.09
2023-10-12T17:50:16.963Z,101290.41
2023-10-12T17:52:46.809Z,101283.34
2023-10-12T17:55:17.457Z,101286.81
2023-10-12T17:57:44.945Z,101289.34
2023-10-12T18:00:12.368Z,101301.53
2023-10-12T18:02:43.246Z,101303.97
2023-10-12T18:05:13.009Z,101303.00
2023-10-12T18:07:41.516Z,101307.34
2023-10-12T18:10:08.707Z,101301.13
2023-10-12T18:12:35.405Z,101303.63
2023-10-12T18:15:01.883Z,101306.16
2023-10-12T18:17:28.509Z,101311.41
2023-10-12T18:19:55.322Z,101299.13
2023-10-12T18:22:21.971Z,101299.00
2023-10-12T18:24:48.474Z,101290.06
2023-10-12T18:27:14.921Z,101291.66
2023-10-12T18:29:42.926Z,101295.94
2023-10-12T18:32:09.735Z,101295.72
2023-10-12T18:34:36.422Z,101299.19
2023-10-12T18:37:12.465Z,101305.19
2023-10-12T18:39:41.586Z,101302.56
2023-10-12T18:42:08.160Z,101306.66
2023-10-12T18:44:37.289Z,101297.94
2023-10-12T18:47:06.062Z,101296.03
2023-10-12T18:49:32.725Z,101306.56
2023-10-12T18:51:59.597Z,101313.38
2023-10-12T18:54:26.437Z,101309.59
2023-10-12T18:56:53.010Z,101306.09
2023-10-12T18:59:19.928Z,101306.09
2023-10-12T19:01:46.803Z,101311.28
2023-10-12T19:04:13.506Z,101302.44
2023-10-12T19:06:40.006Z,101310.22
2023-10-12T19:09:06.842Z,101312.63
2023-10-12T19:11:33.403Z,101313.34
2023-10-12T19:13:59.901Z,101302.75
2023-10-12T19:16:26.515Z,101312.28
2023-10-12T19:18:53.132Z,101313.13
2023-10-12T19:21:20.849Z,101310.50
2023-10-12T19:23:47.939Z,101315.53
2023-10-12T19:26:15.802Z,101310.41
2023-10-12T19:28:44.990Z,101312.09
2023-10-12T19:31:13.652Z,101305.03
2023-10-12T19:33:42.692Z,101304.91
2023-10-12T19:36:11.053Z,101296.19
2023-10-12T19:38:40.228Z,101306.59
2023-10-12T19:41:08.565Z,101303.84
2023-10-12T19:43:37.971Z,101289.03
2023-10-12T19:46:10.666Z,101298.59
2023-10-12T19:48:38.330Z,101302.06
2023-10-12T19:51:14.940Z,101295.88
2023-10-12T19:53:49.175Z,101298.38
2023-10-12T19:56:22.841Z,101293.13
2023-10-12T19:58:50.434Z,101297.41
2023-10-12T20:01:22.072Z,101296.50
2023-10-12T20:03:50.732Z,101286.06
2023-10-12T20:06:18.616Z,101285.84
2023-10-12T20:08:54.611Z,101291.09
2023-10-12T20:11:21.149Z,101293.72
2023-10-12T20:13:50.001Z,101297.19
2023-10-12T20:16:25.257Z,101297.19
2023-10-12T20:18:52.025Z,101302.25
2023-10-12T20:21:18.610Z,101297.94
2023-10-12T20:23:46.433Z,101292.69
2023-10-12T20:26:14.983Z,101304.03
2023-10-12T20:28:41.989Z,101290.88
2023-10-12T20:31:12.035Z,101292.69
2023-10-12T20:33:40.772Z,101294.34
2023-10-12T20:36:09.002Z,101295.31
2023-10-12T20:38:36.116Z,101293.50
2023-10-12T20:41:05.219Z,101293.50
2023-10-12T20:43:35.280Z,101298.56
2023-10-12T20:46:09.136Z,101290.78
2023-10-12T20:48:39.423Z,101291.50
2023-10-12T20:51:06.506Z,101286.38
2023-10-12T20:53:37.058Z,101301.19
2023-10-12T20:56:09.502Z,101301.94
2023-10-12T20:58:44.430Z,101299.31
2023-10-12T21:01:28.235Z,101301.09
2023-10-12T21:03:55.333Z,101296.75
2023-10-12T21:06:29.665Z,101299.41
2023-10-12T21:09:13.254Z,101286.25
2023-10-12T21:11:46.686Z,101286.25
2023-10-12T21:14:27.455Z,101286.25
2023-10-12T21:16:54.822Z,101288.16
2023-10-12T21:19:22.059Z,101288.16
2023-10-12T21:21:55.889Z,101280.28
2023-10-12T21:24:23.244Z,101271.50
2023-10-12T21:26:52.713Z,101267.13
2023-10-12T21:29:19.892Z,101263.63
2023-10-12T21:32:04.426Z,101259.31
2023-10-12T21:34:34.803Z,101259.31
2023-10-12T21:37:07.509Z,101257.53
2023-10-12T21:39:37.015Z,101254.91
2023-10-12T21:42:04.643Z,101255.75
2023-10-12T21:44:31.192Z,101257.44
2023-10-12T21:47:03.722Z,101251.44
2023-10-12T21:49:33.785Z,101252.28
2023-10-12T21:52:00.813Z,101251.34
2023-10-12T21:54:27.482Z,101250.47
2023-10-12T21:56:56.776Z,101249.56
2023-10-12T21:59:23.880Z,101244.28
2023-10-12T22:02:03.973Z,101245.97
2023-10-12T22:04:38.043Z,101243.31
2023-10-12T22:07:07.946Z,101249.44
2023-10-12T22:09:44.679Z,101244.28
2023-10-12T22:12:15.518Z,101243.31
2023-10-12T22:15:01.678Z,101249.44
2023-10-12T22:17:29.910Z,101250.38
2023-10-12T22:19:57.812Z,101240.81
2023-10-12T22:22:24.877Z,101235.44
2023-10-12T22:24:54.246Z,101233.78
2023-10-12T22:27:22.416Z,101235.56
2023-10-12T22:29:49.035Z,101234.69
2023-10-12T22:32:15.857Z,101236.28
2023-10-12T22:34:42.409Z,101245.97
2023-10-12T22:37:12.242Z,101236.28
2023-10-12T22:39:39.541Z,101240.69
2023-10-12T22:42:06.295Z,101238.91
2023-10-12T22:44:36.224Z,101247.63
2023-10-12T22:47:04.196Z,101243.31
2023-10-12T22:49:33.730Z,101245.97
2023-10-12T22:52:01.173Z,101238.06
2023-10-12T22:54:34.621Z,101238.06
2023-10-12T22:57:03.611Z,101239.03
2023-10-12T22:59:32.884Z,101236.41
2023-10-12T23:01:59.405Z,101232.94
2023-10-12T23:04:26.393Z,101232.94
2023-10-12T23:06:53.414Z,101235.56
2023-10-12T23:09:20.403Z,101224.19
2023-10-12T23:11:50.186Z,101226.81
2023-10-12T23:14:24.284Z,101235.56
2023-10-12T23:16:52.227Z,101228.59
2023-10-12T23:19:37.029Z,101229.56
2023-10-12T23:22:17.784Z,101228.72
2023-10-12T23:24:45.063Z,101226.09
2023-10-12T23:27:14.137Z,101229.56
2023-10-12T23:29:40.922Z,101218.22
2023-10-12T23:32:10.092Z,101225.25
2023-10-12T23:34:45.677Z,101227.91
2023-10-12T23:37:13.522Z,101227.91
2023-10-12T23:39:56.258Z,101238.41
2023-10-12T23:42:23.827Z,101227.91
2023-10-12T23:44:50.738Z,101228.72
2023-10-12T23:47:18.650Z,101226.09
2023-10-12T23:49:46.490Z,101226.94
2023-10-12T23:52:23.376Z,101215.59
2023-10-12T23:54:51.074Z,101213.91
2023-10-12T23:57:17.622Z,101217.25
2023-10-12T23:59:45.166Z,101206.84
